sensor_id;sensor_type;location;lat;lon;timestamp;temperature;humidity
38325;DHT22;24126;52.672;13.622;2023-03-16T00:02:00;5.70;67.00
38325;DHT22;24126;52.672;13.622;2023-03-16T00:04:28;5.70;67.00
38325;DHT22;24126;52.672;13.622;2023-03-16T00:06:57;5.70;67.00
38325;DHT22;24126;52.672;13.622;2023-03-16T00:09:24;5.70;67.00
38325;DHT22;24126;52.672;13.622;2023-03-16T00:11:56;5.70;67.00
38325;DHT22;24126;52.672;13.622;2023-03-16T00:14:24;5.60;67.00
38325;DHT22;24126;52.672;13.622;2023-03-16T00:16:51;5.70;67.10
38325;DHT22;24126;52.672;13.622;2023-03-16T00:19:18;5.70;67.00
38325;DHT22;24126;52.672;13.622;2023-03-16T00:21:50;5.60;67.10
38325;DHT22;24126;52.672;13.622;2023-03-16T00:24:17;5.60;67.20
38325;DHT22;24126;52.672;13.622;2023-03-16T00:26:45;5.60;67.20
38325;DHT22;24126;52.672;13.622;2023-03-16T00:29:12;5.60;67.20
38325;DHT22;24126;52.672;13.622;2023-03-16T00:31:40;5.60;67.10
38325;DHT22;24126;52.672;13.622;2023-03-16T00:34:09;5.60;67.10
38325;DHT22;24126;52.672;13.622;2023-03-16T00:36:36;5.60;67.20
38325;DHT22;24126;52.672;13.622;2023-03-16T00:39:04;5.60;67.30
38325;DHT22;24126;52.672;13.622;2023-03-16T00:41:31;5.60;67.40
38325;DHT22;24126;52.672;13.622;2023-03-16T00:44:03;5.50;67.40
38325;DHT22;24126;52.672;13.622;2023-03-16T00:46:30;5.50;67.50
38325;DHT22;24126;52.672;13.622;2023-03-16T00:48:57;5.50;67.60
38325;DHT22;24126;52.672;13.622;2023-03-16T00:51:24;5.50;67.50
38325;DHT22;24126;52.672;13.622;2023-03-16T00:53:51;5.50;67.60
38325;DHT22;24126;52.672;13.622;2023-03-16T00:56:18;5.50;67.60
38325;DHT22;24126;52.672;13.622;2023-03-16T00:58:45;5.40;67.60
38325;DHT22;24126;52.672;13.622;2023-03-16T01:01:14;5.40;67.60
38325;DHT22;24126;52.672;13.622;2023-03-16T01:03:41;5.40;67.60
38325;DHT22;24126;52.672;13.622;2023-03-16T01:06:10;5.40;67.60
38325;DHT22;24126;52.672;13.622;2023-03-16T01:08:38;5.40;67.50
38325;DHT22;24126;52.672;13.622;2023-03-16T01:11:08;5.40;67.50
38325;DHT22;24126;52.672;13.622;2023-03-16T01:13:36;5.30;67.60
38325;DHT22;24126;52.672;13.622;2023-03-16T01:16:03;5.30;67.60
38325;DHT22;24126;52.672;13.622;2023-03-16T01:18:31;5.30;67.60
38325;DHT22;24126;52.672;13.622;2023-03-16T01:21:03;5.30;67.60
38325;DHT22;24126;52.672;13.622;2023-03-16T01:23:32;5.20;67.60
38325;DHT22;24126;52.672;13.622;2023-03-16T01:25:59;5.30;67.60
38325;DHT22;24126;52.672;13.622;2023-03-16T01:28:28;5.30;67.60
38325;DHT22;24126;52.672;13.622;2023-03-16T01:31:02;5.20;67.60
38325;DHT22;24126;52.672;13.622;2023-03-16T01:33:30;5.20;67.70
38325;DHT22;24126;52.672;13.622;2023-03-16T01:35:59;5.20;67.70
38325;DHT22;24126;52.672;13.622;2023-03-16T01:38:31;5.10;67.80
38325;DHT22;24126;52.672;13.622;2023-03-16T01:40:59;5.20;68.10
38325;DHT22;24126;52.672;13.622;2023-03-16T01:43:27;5.10;68.30
38325;DHT22;24126;52.672;13.622;2023-03-16T01:46:05;5.10;68.50
38325;DHT22;24126;52.672;13.622;2023-03-16T01:51:15;5.00;68.60
38325;DHT22;24126;52.672;13.622;2023-03-16T01:53:46;5.00;68.60
38325;DHT22;24126;52.672;13.622;2023-03-16T01:56:15;5.00;68.70
38325;DHT22;24126;52.672;13.622;2023-03-16T01:58:44;5.00;68.90
38325;DHT22;24126;52.672;13.622;2023-03-16T02:01:12;5.00;69.50
38325;DHT22;24126;52.672;13.622;2023-03-16T02:03:40;5.00;68.70
38325;DHT22;24126;52.672;13.622;2023-03-16T02:06:17;5.00;68.80
38325;DHT22;24126;52.672;13.622;2023-03-16T02:08:51;5.00;68.70
38325;DHT22;24126;52.672;13.622;2023-03-16T02:11:20;5.00;68.60
38325;DHT22;24126;52.672;13.622;2023-03-16T02:14:08;5.00;68.40
38325;DHT22;24126;52.672;13.622;2023-03-16T02:16:36;5.00;68.30
38325;DHT22;24126;52.672;13.622;2023-03-16T02:19:05;5.00;68.40
38325;DHT22;24126;52.672;13.622;2023-03-16T02:21:38;5.00;68.50
38325;DHT22;24126;52.672;13.622;2023-03-16T02:24:07;4.90;68.40
38325;DHT22;24126;52.672;13.622;2023-03-16T02:29:09;4.90;68.40
38325;DHT22;24126;52.672;13.622;2023-03-16T02:31:38;4.90;68.40
38325;DHT22;24126;52.672;13.622;2023-03-16T02:34:05;4.90;68.50
38325;DHT22;24126;52.672;13.622;2023-03-16T02:36:33;4.90;68.50
38325;DHT22;24126;52.672;13.622;2023-03-16T02:39:00;4.90;68.50
38325;DHT22;24126;52.672;13.622;2023-03-16T02:41:28;4.90;68.40
38325;DHT22;24126;52.672;13.622;2023-03-16T02:44:00;4.80;68.30
38325;DHT22;24126;52.672;13.622;2023-03-16T02:46:32;4.90;68.30
38325;DHT22;24126;52.672;13.622;2023-03-16T02:49:21;4.80;68.20
38325;DHT22;24126;52.672;13.622;2023-03-16T02:51:50;4.90;68.30
38325;DHT22;24126;52.672;13.622;2023-03-16T02:54:17;4.90;68.10
38325;DHT22;24126;52.672;13.622;2023-03-16T02:56:45;4.80;68.10
38325;DHT22;24126;52.672;13.622;2023-03-16T02:59:13;4.80;68.10
38325;DHT22;24126;52.672;13.622;2023-03-16T03:01:40;4.80;68.00
38325;DHT22;24126;52.672;13.622;2023-03-16T03:04:09;4.80;68.00
38325;DHT22;24126;52.672;13.622;2023-03-16T03:06:36;4.80;68.00
38325;DHT22;24126;52.672;13.622;2023-03-16T03:09:03;4.80;68.00
38325;DHT22;24126;52.672;13.622;2023-03-16T03:11:31;4.80;67.90
38325;DHT22;24126;52.672;13.622;2023-03-16T03:13:59;4.80;67.90
38325;DHT22;24126;52.672;13.622;2023-03-16T03:16:27;4.80;68.60
38325;DHT22;24126;52.672;13.622;2023-03-16T03:18:56;4.80;67.90
38325;DHT22;24126;52.672;13.622;2023-03-16T03:21:23;4.70;68.00
38325;DHT22;24126;52.672;13.622;2023-03-16T03:23:50;4.70;68.00
38325;DHT22;24126;52.672;13.622;2023-03-16T03:26:17;4.70;68.00
38325;DHT22;24126;52.672;13.622;2023-03-16T03:28:45;4.70;67.90
38325;DHT22;24126;52.672;13.622;2023-03-16T03:31:13;4.70;67.90
38325;DHT22;24126;52.672;13.622;2023-03-16T03:33:41;4.70;67.80
38325;DHT22;24126;52.672;13.622;2023-03-16T03:36:08;4.70;67.80
38325;DHT22;24126;52.672;13.622;2023-03-16T03:38:36;4.70;67.90
38325;DHT22;24126;52.672;13.622;2023-03-16T03:41:05;4.70;67.90
38325;DHT22;24126;52.672;13.622;2023-03-16T03:43:35;4.70;68.00
38325;DHT22;24126;52.672;13.622;2023-03-16T03:46:02;4.70;68.00
38325;DHT22;24126;52.672;13.622;2023-03-16T03:48:32;4.70;68.00
38325;DHT22;24126;52.672;13.622;2023-03-16T03:50:59;4.70;68.10
38325;DHT22;24126;52.672;13.622;2023-03-16T03:53:45;4.70;68.10
38325;DHT22;24126;52.672;13.622;2023-03-16T03:56:19;4.70;68.10
38325;DHT22;24126;52.672;13.622;2023-03-16T03:58:46;4.70;68.00
38325;DHT22;24126;52.672;13.622;2023-03-16T04:01:20;4.70;68.70
38325;DHT22;24126;52.672;13.622;2023-03-16T04:03:47;4.60;68.00
38325;DHT22;24126;52.672;13.622;2023-03-16T04:06:15;4.60;68.10
38325;DHT22;24126;52.672;13.622;2023-03-16T04:08:42;4.60;68.10
38325;DHT22;24126;52.672;13.622;2023-03-16T04:11:14;4.60;68.10
38325;DHT22;24126;52.672;13.622;2023-03-16T04:13:41;4.60;68.10
38325;DHT22;24126;52.672;13.622;2023-03-16T04:16:09;4.50;68.10
38325;DHT22;24126;52.672;13.622;2023-03-16T04:18:42;4.50;68.10
38325;DHT22;24126;52.672;13.622;2023-03-16T04:21:12;4.50;68.10
38325;DHT22;24126;52.672;13.622;2023-03-16T04:23:40;4.50;68.00
38325;DHT22;24126;52.672;13.622;2023-03-16T04:26:08;4.50;68.10
38325;DHT22;24126;52.672;13.622;2023-03-16T04:28:35;4.50;68.20
38325;DHT22;24126;52.672;13.622;2023-03-16T04:31:02;4.50;68.20
38325;DHT22;24126;52.672;13.622;2023-03-16T04:33:36;4.50;68.20
38325;DHT22;24126;52.672;13.622;2023-03-16T04:36:04;4.50;68.20
38325;DHT22;24126;52.672;13.622;2023-03-16T04:38:33;4.50;68.20
38325;DHT22;24126;52.672;13.622;2023-03-16T04:41:01;4.40;68.20
38325;DHT22;24126;52.672;13.622;2023-03-16T04:43:33;4.50;68.20
38325;DHT22;24126;52.672;13.622;2023-03-16T04:46:05;4.40;68.20
38325;DHT22;24126;52.672;13.622;2023-03-16T04:48:34;4.50;68.30
38325;DHT22;24126;52.672;13.622;2023-03-16T04:51:03;4.40;68.50
38325;DHT22;24126;52.672;13.622;2023-03-16T04:53:32;4.50;68.70
38325;DHT22;24126;52.672;13.622;2023-03-16T04:56:06;4.50;68.40
38325;DHT22;24126;52.672;13.622;2023-03-16T04:58:34;4.60;68.20
38325;DHT22;24126;52.672;13.622;2023-03-16T05:01:03;4.60;68.10
38325;DHT22;24126;52.672;13.622;2023-03-16T05:03:31;4.60;68.20
38325;DHT22;24126;52.672;13.622;2023-03-16T05:05:59;4.50;68.00
38325;DHT22;24126;52.672;13.622;2023-03-16T05:08:28;4.60;67.90
38325;DHT22;24126;52.672;13.622;2023-03-16T05:10:55;4.50;67.70
38325;DHT22;24126;52.672;13.622;2023-03-16T05:13:23;4.50;67.60
38325;DHT22;24126;52.672;13.622;2023-03-16T05:15:51;4.50;67.60
38325;DHT22;24126;52.672;13.622;2023-03-16T05:18:25;4.50;67.60
38325;DHT22;24126;52.672;13.622;2023-03-16T05:20:53;4.50;67.70
38325;DHT22;24126;52.672;13.622;2023-03-16T05:23:21;4.40;67.80
38325;DHT22;24126;52.672;13.622;2023-03-16T05:25:54;4.40;67.70
38325;DHT22;24126;52.672;13.622;2023-03-16T05:28:25;4.50;67.90
38325;DHT22;24126;52.672;13.622;2023-03-16T05:31:05;4.50;67.70
38325;DHT22;24126;52.672;13.622;2023-03-16T05:33:38;4.50;67.60
38325;DHT22;24126;52.672;13.622;2023-03-16T05:36:08;4.50;67.50
38325;DHT22;24126;52.672;13.622;2023-03-16T05:38:37;4.40;67.50
38325;DHT22;24126;52.672;13.622;2023-03-16T05:41:07;4.40;67.50
38325;DHT22;24126;52.672;13.622;2023-03-16T05:44:07;4.40;68.30
38325;DHT22;24126;52.672;13.622;2023-03-16T05:46:52;4.40;67.60
38325;DHT22;24126;52.672;13.622;2023-03-16T05:49:19;4.50;68.30
38325;DHT22;24126;52.672;13.622;2023-03-16T05:51:46;4.50;67.50
38325;DHT22;24126;52.672;13.622;2023-03-16T05:54:14;4.50;67.50
38325;DHT22;24126;52.672;13.622;2023-03-16T05:56:44;4.50;67.50
38325;DHT22;24126;52.672;13.622;2023-03-16T05:59:11;4.50;67.50
38325;DHT22;24126;52.672;13.622;2023-03-16T06:01:39;4.50;67.40
38325;DHT22;24126;52.672;13.622;2023-03-16T06:04:07;4.50;67.50
38325;DHT22;24126;52.672;13.622;2023-03-16T06:06:38;4.60;67.70
38325;DHT22;24126;52.672;13.622;2023-03-16T06:09:12;4.80;68.00
38325;DHT22;24126;52.672;13.622;2023-03-16T06:11:40;5.10;68.10
38325;DHT22;24126;52.672;13.622;2023-03-16T06:14:09;5.50;67.90
38325;DHT22;24126;52.672;13.622;2023-03-16T06:16:36;6.10;67.30
38325;DHT22;24126;52.672;13.622;2023-03-16T06:19:03;6.80;66.30
38325;DHT22;24126;52.672;13.622;2023-03-16T06:21:31;7.70;64.50
38325;DHT22;24126;52.672;13.622;2023-03-16T06:24:06;8.70;62.10
38325;DHT22;24126;52.672;13.622;2023-03-16T06:26:34;9.80;59.70
38325;DHT22;24126;52.672;13.622;2023-03-16T06:29:03;10.90;58.00
38325;DHT22;24126;52.672;13.622;2023-03-16T06:31:33;12.00;55.70
38325;DHT22;24126;52.672;13.622;2023-03-16T06:34:01;13.10;53.30
38325;DHT22;24126;52.672;13.622;2023-03-16T06:36:29;13.90;51.50
38325;DHT22;24126;52.672;13.622;2023-03-16T06:38:59;14.60;50.70
38325;DHT22;24126;52.672;13.622;2023-03-16T06:41:33;15.40;48.80
38325;DHT22;24126;52.672;13.622;2023-03-16T06:44:01;16.60;46.00
38325;DHT22;24126;52.672;13.622;2023-03-16T06:46:28;17.70;43.30
38325;DHT22;24126;52.672;13.622;2023-03-16T06:48:56;18.80;41.40
38325;DHT22;24126;52.672;13.622;2023-03-16T06:51:26;19.70;39.60
38325;DHT22;24126;52.672;13.622;2023-03-16T06:53:53;20.40;38.40
38325;DHT22;24126;52.672;13.622;2023-03-16T06:56:20;21.00;36.90
38325;DHT22;24126;52.672;13.622;2023-03-16T06:58:53;21.50;35.70
38325;DHT22;24126;52.672;13.622;2023-03-16T07:01:21;21.90;34.80
38325;DHT22;24126;52.672;13.622;2023-03-16T07:03:49;22.20;33.60
38325;DHT22;24126;52.672;13.622;2023-03-16T07:06:22;22.30;33.00
38325;DHT22;24126;52.672;13.622;2023-03-16T07:08:50;22.60;31.90
38325;DHT22;24126;52.672;13.622;2023-03-16T07:11:18;22.60;31.20
38325;DHT22;24126;52.672;13.622;2023-03-16T07:13:45;22.20;31.60
38325;DHT22;24126;52.672;13.622;2023-03-16T07:16:14;22.00;31.80
38325;DHT22;24126;52.672;13.622;2023-03-16T07:18:41;21.80;31.90
38325;DHT22;24126;52.672;13.622;2023-03-16T07:21:10;21.30;32.00
38325;DHT22;24126;52.672;13.622;2023-03-16T07:23:38;20.50;32.60
38325;DHT22;24126;52.672;13.622;2023-03-16T07:26:06;19.40;34.00
38325;DHT22;24126;52.672;13.622;2023-03-16T07:28:39;18.40;35.90
38325;DHT22;24126;52.672;13.622;2023-03-16T07:31:07;17.40;37.40
38325;DHT22;24126;52.672;13.622;2023-03-16T07:33:38;16.40;39.50
38325;DHT22;24126;52.672;13.622;2023-03-16T07:36:08;15.60;41.30
38325;DHT22;24126;52.672;13.622;2023-03-16T07:38:39;14.90;42.50
38325;DHT22;24126;52.672;13.622;2023-03-16T07:41:06;14.30;44.50
38325;DHT22;24126;52.672;13.622;2023-03-16T07:43:34;13.80;45.30
38325;DHT22;24126;52.672;13.622;2023-03-16T07:46:01;13.40;46.20
38325;DHT22;24126;52.672;13.622;2023-03-16T07:48:29;13.10;47.30
38325;DHT22;24126;52.672;13.622;2023-03-16T07:51:00;12.90;47.60
38325;DHT22;24126;52.672;13.622;2023-03-16T07:53:28;12.60;48.10
38325;DHT22;24126;52.672;13.622;2023-03-16T07:56:13;12.40;48.40
38325;DHT22;24126;52.672;13.622;2023-03-16T07:58:43;12.30;48.80
38325;DHT22;24126;52.672;13.622;2023-03-16T08:01:11;12.30;48.90
38325;DHT22;24126;52.672;13.622;2023-03-16T08:03:38;12.40;49.30
38325;DHT22;24126;52.672;13.622;2023-03-16T08:06:06;12.70;50.10
38325;DHT22;24126;52.672;13.622;2023-03-16T08:08:34;12.90;49.80
38325;DHT22;24126;52.672;13.622;2023-03-16T08:11:01;13.30;49.30
38325;DHT22;24126;52.672;13.622;2023-03-16T08:13:40;13.70;48.80
38325;DHT22;24126;52.672;13.622;2023-03-16T08:16:09;14.20;48.50
38325;DHT22;24126;52.672;13.622;2023-03-16T08:18:40;14.70;47.70
38325;DHT22;24126;52.672;13.622;2023-03-16T08:21:08;15.10;46.70
38325;DHT22;24126;52.672;13.622;2023-03-16T08:23:35;15.50;45.70
38325;DHT22;24126;52.672;13.622;2023-03-16T08:26:03;15.90;44.50
38325;DHT22;24126;52.672;13.622;2023-03-16T08:28:34;16.10;44.60
38325;DHT22;24126;52.672;13.622;2023-03-16T08:31:06;16.30;44.70
38325;DHT22;24126;52.672;13.622;2023-03-16T08:33:41;16.30;44.40
38325;DHT22;24126;52.672;13.622;2023-03-16T08:36:09;16.30;44.10
38325;DHT22;24126;52.672;13.622;2023-03-16T08:38:38;16.20;44.30
38325;DHT22;24126;52.672;13.622;2023-03-16T08:41:07;16.10;44.60
38325;DHT22;24126;52.672;13.622;2023-03-16T08:43:35;16.00;45.20
38325;DHT22;24126;52.672;13.622;2023-03-16T08:46:02;16.00;44.80
38325;DHT22;24126;52.672;13.622;2023-03-16T08:48:40;16.00;44.60
38325;DHT22;24126;52.672;13.622;2023-03-16T08:51:08;16.00;44.80
38325;DHT22;24126;52.672;13.622;2023-03-16T08:53:36;16.10;43.50
38325;DHT22;24126;52.672;13.622;2023-03-16T08:56:05;16.10;43.30
38325;DHT22;24126;52.672;13.622;2023-03-16T08:58:32;16.10;44.00
38325;DHT22;24126;52.672;13.622;2023-03-16T09:01:00;16.20;43.90
38325;DHT22;24126;52.672;13.622;2023-03-16T09:03:27;16.30;44.40
38325;DHT22;24126;52.672;13.622;2023-03-16T09:06:02;16.40;44.50
38325;DHT22;24126;52.672;13.622;2023-03-16T09:08:30;16.50;44.10
38325;DHT22;24126;52.672;13.622;2023-03-16T09:11:01;16.60;44.20
38325;DHT22;24126;52.672;13.622;2023-03-16T09:13:29;16.70;43.80
38325;DHT22;24126;52.672;13.622;2023-03-16T09:15:56;16.80;43.50
38325;DHT22;24126;52.672;13.622;2023-03-16T09:18:24;16.90;43.10
38325;DHT22;24126;52.672;13.622;2023-03-16T09:20:57;16.90;42.50
38325;DHT22;24126;52.672;13.622;2023-03-16T09:23:25;16.90;42.70
38325;DHT22;24126;52.672;13.622;2023-03-16T09:26:00;17.00;42.90
38325;DHT22;24126;52.672;13.622;2023-03-16T09:28:30;17.00;42.60
38325;DHT22;24126;52.672;13.622;2023-03-16T09:31:02;17.00;42.80
38325;DHT22;24126;52.672;13.622;2023-03-16T09:33:31;17.00;42.20
38325;DHT22;24126;52.672;13.622;2023-03-16T09:36:02;17.10;41.90
38325;DHT22;24126;52.672;13.622;2023-03-16T09:38:29;17.10;42.50
38325;DHT22;24126;52.672;13.622;2023-03-16T09:41:01;17.10;42.10
38325;DHT22;24126;52.672;13.622;2023-03-16T09:48:24;17.20;41.70
38325;DHT22;24126;52.672;13.622;2023-03-16T09:50:54;17.30;41.60
38325;DHT22;24126;52.672;13.622;2023-03-16T09:53:26;17.30;42.10
38325;DHT22;24126;52.672;13.622;2023-03-16T09:56:10;17.30;41.80
38325;DHT22;24126;52.672;13.622;2023-03-16T09:58:48;17.40;40.40
38325;DHT22;24126;52.672;13.622;2023-03-16T10:01:21;17.40;40.90
38325;DHT22;24126;52.672;13.622;2023-03-16T10:06:43;17.60;40.30
38325;DHT22;24126;52.672;13.622;2023-03-16T10:11:52;17.70;40.20
38325;DHT22;24126;52.672;13.622;2023-03-16T10:16:53;17.80;38.80
38325;DHT22;24126;52.672;13.622;2023-03-16T10:20:10;17.80;36.90
38325;DHT22;24126;52.672;13.622;2023-03-16T10:22:21;17.70;39.70
38325;DHT22;24126;52.672;13.622;2023-03-16T10:24:56;17.80;39.10
38325;DHT22;24126;52.672;13.622;2023-03-16T10:27:33;17.80;37.80
38325;DHT22;24126;52.672;13.622;2023-03-16T10:30:06;17.90;37.70
38325;DHT22;24126;52.672;13.622;2023-03-16T10:32:34;17.80;37.40
38325;DHT22;24126;52.672;13.622;2023-03-16T10:35:05;17.80;38.60
38325;DHT22;24126;52.672;13.622;2023-03-16T10:40:58;17.50;36.90
38325;DHT22;24126;52.672;13.622;2023-03-16T10:43:54;17.60;39.00
38325;DHT22;24126;52.672;13.622;2023-03-16T10:46:25;17.70;36.90
38325;DHT22;24126;52.672;13.622;2023-03-16T10:48:54;17.70;36.30
38325;DHT22;24126;52.672;13.622;2023-03-16T10:51:30;17.70;37.20
38325;DHT22;24126;52.672;13.622;2023-03-16T10:54:26;17.60;36.50
38325;DHT22;24126;52.672;13.622;2023-03-16T10:56:58;17.50;37.80
38325;DHT22;24126;52.672;13.622;2023-03-16T10:59:30;17.40;37.50
38325;DHT22;24126;52.672;13.622;2023-03-16T11:02:08;17.40;37.20
38325;DHT22;24126;52.672;13.622;2023-03-16T11:04:40;17.40;37.10
38325;DHT22;24126;52.672;13.622;2023-03-16T11:07:07;17.40;37.30
38325;DHT22;24126;52.672;13.622;2023-03-16T11:09:36;17.30;36.40
38325;DHT22;24126;52.672;13.622;2023-03-16T11:12:13;17.30;36.70
38325;DHT22;24126;52.672;13.622;2023-03-16T11:14:42;17.30;36.60
38325;DHT22;24126;52.672;13.622;2023-03-16T11:17:33;17.30;36.60
38325;DHT22;24126;52.672;13.622;2023-03-16T11:20:04;17.30;37.00
38325;DHT22;24126;52.672;13.622;2023-03-16T11:22:39;17.40;36.60
38325;DHT22;24126;52.672;13.622;2023-03-16T11:27:48;17.60;37.30
38325;DHT22;24126;52.672;13.622;2023-03-16T11:33:10;17.50;35.50
38325;DHT22;24126;52.672;13.622;2023-03-16T11:35:46;17.50;35.90
38325;DHT22;24126;52.672;13.622;2023-03-16T11:38:16;17.50;36.10
38325;DHT22;24126;52.672;13.622;2023-03-16T11:51:20;17.40;34.70
38325;DHT22;24126;52.672;13.622;2023-03-16T11:54:06;17.20;34.70
38325;DHT22;24126;52.672;13.622;2023-03-16T11:59:48;17.00;35.30
38325;DHT22;24126;52.672;13.622;2023-03-16T12:05:27;17.10;34.20
38325;DHT22;24126;52.672;13.622;2023-03-16T12:10:46;17.10;35.10
38325;DHT22;24126;52.672;13.622;2023-03-16T12:16:16;17.30;34.30
38325;DHT22;24126;52.672;13.622;2023-03-16T12:18:57;17.30;33.10
38325;DHT22;24126;52.672;13.622;2023-03-16T12:21:42;17.30;33.50
38325;DHT22;24126;52.672;13.622;2023-03-16T12:24:12;17.30;32.60
38325;DHT22;24126;52.672;13.622;2023-03-16T12:26:42;17.20;31.80
38325;DHT22;24126;52.672;13.622;2023-03-16T12:31:49;17.10;34.30
38325;DHT22;24126;52.672;13.622;2023-03-16T12:34:52;17.10;35.30
38325;DHT22;24126;52.672;13.622;2023-03-16T12:37:25;17.10;34.30
38325;DHT22;24126;52.672;13.622;2023-03-16T12:47:55;17.00;33.20
38325;DHT22;24126;52.672;13.622;2023-03-16T12:50:24;17.00;32.90
38325;DHT22;24126;52.672;13.622;2023-03-16T12:52:58;16.90;33.00
38325;DHT22;24126;52.672;13.622;2023-03-16T12:58:00;16.80;34.20
38325;DHT22;24126;52.672;13.622;2023-03-16T13:00:40;16.80;33.80
38325;DHT22;24126;52.672;13.622;2023-03-16T13:03:12;16.90;33.80
38325;DHT22;24126;52.672;13.622;2023-03-16T13:05:43;16.90;33.50
38325;DHT22;24126;52.672;13.622;2023-03-16T13:08:12;16.90;33.10
38325;DHT22;24126;52.672;13.622;2023-03-16T13:10:40;16.80;34.20
38325;DHT22;24126;52.672;13.622;2023-03-16T13:13:12;16.70;32.30
38325;DHT22;24126;52.672;13.622;2023-03-16T13:15:40;16.70;31.70
38325;DHT22;24126;52.672;13.622;2023-03-16T13:20:58;16.70;33.10
38325;DHT22;24126;52.672;13.622;2023-03-16T13:26:13;16.50;31.70
38325;DHT22;24126;52.672;13.622;2023-03-16T13:28:41;16.40;33.50
38325;DHT22;24126;52.672;13.622;2023-03-16T13:33:53;16.20;30.10
38325;DHT22;24126;52.672;13.622;2023-03-16T13:36:22;16.00;30.30
38325;DHT22;24126;52.672;13.622;2023-03-16T13:39:00;15.90;32.50
38325;DHT22;24126;52.672;13.622;2023-03-16T13:41:29;16.00;33.10
38325;DHT22;24126;52.672;13.622;2023-03-16T13:43:56;16.00;32.80
38325;DHT22;24126;52.672;13.622;2023-03-16T13:46:26;15.90;33.70
38325;DHT22;24126;52.672;13.622;2023-03-16T13:48:55;15.90;33.40
38325;DHT22;24126;52.672;13.622;2023-03-16T13:51:23;16.00;34.40
38325;DHT22;24126;52.672;13.622;2023-03-16T13:53:50;15.90;33.50
38325;DHT22;24126;52.672;13.622;2023-03-16T13:56:21;15.90;33.80
38325;DHT22;24126;52.672;13.622;2023-03-16T13:58:51;15.90;33.90
38325;DHT22;24126;52.672;13.622;2023-03-16T14:01:29;15.80;33.20
38325;DHT22;24126;52.672;13.622;2023-03-16T14:03:58;15.70;33.30
38325;DHT22;24126;52.672;13.622;2023-03-16T14:06:28;15.60;31.60
38325;DHT22;24126;52.672;13.622;2023-03-16T14:08:59;15.50;31.80
38325;DHT22;24126;52.672;13.622;2023-03-16T14:11:28;15.40;32.80
38325;DHT22;24126;52.672;13.622;2023-03-16T14:13:55;15.50;33.40
38325;DHT22;24126;52.672;13.622;2023-03-16T14:16:27;15.50;34.00
38325;DHT22;24126;52.672;13.622;2023-03-16T14:19:05;15.40;33.20
38325;DHT22;24126;52.672;13.622;2023-03-16T14:21:33;15.30;32.30
38325;DHT22;24126;52.672;13.622;2023-03-16T14:24:01;15.30;32.70
38325;DHT22;24126;52.672;13.622;2023-03-16T14:26:40;15.30;32.60
38325;DHT22;24126;52.672;13.622;2023-03-16T14:29:19;15.20;32.90
38325;DHT22;24126;52.672;13.622;2023-03-16T14:31:47;15.10;32.30
38325;DHT22;24126;52.672;13.622;2023-03-16T14:34:28;15.10;32.30
38325;DHT22;24126;52.672;13.622;2023-03-16T14:37:11;15.10;32.90
38325;DHT22;24126;52.672;13.622;2023-03-16T14:39:39;15.00;33.00
38325;DHT22;24126;52.672;13.622;2023-03-16T14:42:40;15.00;33.20
38325;DHT22;24126;52.672;13.622;2023-03-16T14:45:01;14.90;33.60
38325;DHT22;24126;52.672;13.622;2023-03-16T14:47:30;14.90;34.20
38325;DHT22;24126;52.672;13.622;2023-03-16T14:50:05;14.80;34.60
38325;DHT22;24126;52.672;13.622;2023-03-16T14:52:32;14.80;34.30
38325;DHT22;24126;52.672;13.622;2023-03-16T14:55:00;14.80;33.50
38325;DHT22;24126;52.672;13.622;2023-03-16T14:57:34;14.70;32.90
38325;DHT22;24126;52.672;13.622;2023-03-16T15:00:02;14.70;33.40
38325;DHT22;24126;52.672;13.622;2023-03-16T15:02:31;14.60;32.80
38325;DHT22;24126;52.672;13.622;2023-03-16T15:04:59;14.50;32.90
38325;DHT22;24126;52.672;13.622;2023-03-16T15:07:27;14.50;33.10
38325;DHT22;24126;52.672;13.622;2023-03-16T15:10:05;14.50;33.40
38325;DHT22;24126;52.672;13.622;2023-03-16T15:12:34;14.50;33.50
38325;DHT22;24126;52.672;13.622;2023-03-16T15:15:15;14.40;32.90
38325;DHT22;24126;52.672;13.622;2023-03-16T15:17:47;14.30;32.90
38325;DHT22;24126;52.672;13.622;2023-03-16T15:20:16;14.30;32.40
38325;DHT22;24126;52.672;13.622;2023-03-16T15:22:44;14.20;33.10
38325;DHT22;24126;52.672;13.622;2023-03-16T15:25:30;14.20;33.20
38325;DHT22;24126;52.672;13.622;2023-03-16T15:28:02;14.20;33.30
38325;DHT22;24126;52.672;13.622;2023-03-16T15:30:30;14.20;33.60
38325;DHT22;24126;52.672;13.622;2023-03-16T15:32:57;14.10;32.70
38325;DHT22;24126;52.672;13.622;2023-03-16T15:35:24;14.10;31.90
38325;DHT22;24126;52.672;13.622;2023-03-16T15:37:51;14.10;32.00
38325;DHT22;24126;52.672;13.622;2023-03-16T15:42:48;14.00;32.60
38325;DHT22;24126;52.672;13.622;2023-03-16T15:45:16;14.00;32.90
38325;DHT22;24126;52.672;13.622;2023-03-16T15:47:48;14.10;33.00
38325;DHT22;24126;52.672;13.622;2023-03-16T15:50:17;14.10;33.10
38325;DHT22;24126;52.672;13.622;2023-03-16T15:52:45;14.00;32.00
38325;DHT22;24126;52.672;13.622;2023-03-16T15:55:13;14.00;31.80
38325;DHT22;24126;52.672;13.622;2023-03-16T15:57:42;14.00;31.70
38325;DHT22;24126;52.672;13.622;2023-03-16T16:02:49;14.00;31.90
38325;DHT22;24126;52.672;13.622;2023-03-16T16:05:16;13.90;32.40
38325;DHT22;24126;52.672;13.622;2023-03-16T16:07:43;13.90;31.10
38325;DHT22;24126;52.672;13.622;2023-03-16T16:10:11;13.90;30.80
38325;DHT22;24126;52.672;13.622;2023-03-16T16:12:39;13.80;31.80
38325;DHT22;24126;52.672;13.622;2023-03-16T16:15:49;13.70;30.70
38325;DHT22;24126;52.672;13.622;2023-03-16T16:17:58;13.70;30.90
38325;DHT22;24126;52.672;13.622;2023-03-16T16:20:27;13.60;31.00
38325;DHT22;24126;52.672;13.622;2023-03-16T16:22:55;13.50;31.00
38325;DHT22;24126;52.672;13.622;2023-03-16T16:25:25;13.60;31.40
38325;DHT22;24126;52.672;13.622;2023-03-16T16:27:52;13.50;31.90
38325;DHT22;24126;52.672;13.622;2023-03-16T16:30:27;13.50;32.50
38325;DHT22;24126;52.672;13.622;2023-03-16T16:32:55;13.40;32.60
38325;DHT22;24126;52.672;13.622;2023-03-16T16:35:24;13.40;32.90
38325;DHT22;24126;52.672;13.622;2023-03-16T16:37:51;13.30;32.90
38325;DHT22;24126;52.672;13.622;2023-03-16T16:40:19;13.30;33.20
38325;DHT22;24126;52.672;13.622;2023-03-16T16:42:48;13.20;33.30
38325;DHT22;24126;52.672;13.622;2023-03-16T16:45:20;13.10;33.70
38325;DHT22;24126;52.672;13.622;2023-03-16T16:47:51;13.10;33.90
38325;DHT22;24126;52.672;13.622;2023-03-16T16:50:19;13.10;33.60
38325;DHT22;24126;52.672;13.622;2023-03-16T16:52:47;13.00;33.60
38325;DHT22;24126;52.672;13.622;2023-03-16T16:55:14;12.90;34.00
38325;DHT22;24126;52.672;13.622;2023-03-16T16:57:42;12.80;34.10
38325;DHT22;24126;52.672;13.622;2023-03-16T17:00:21;12.80;34.10